Time;durP1;ratioP1;P1;durP2;ratioP2;P2;SDS_P1;SDS_P2;PMS_P1;PMS_P2;Temp;Humidity;BMP_temperature;BMP_pressure;BME280_temperature;BME280_humidity;BME280_pressure;Samples;Min_cycle;Max_cycle;Signal;HPM_P1;HPM_P2
2022/03/05 00:04:27;;;;;;;57.03;24.73;;;;;;;-0.77;56.90;100407.28;10304050;28;20586;-67
2022/03/05 00:09:29;;;;;;;54.15;24.63;;;;;;;-0.81;57.10;100409.00;10304477;28;20058;-66
2022/03/05 00:14:31;;;;;;;55.65;23.77;;;;;;;-0.85;56.97;100404.75;10304272;28;20061;-66
2022/03/05 00:19:33;;;;;;;54.08;24.35;;;;;;;-0.92;56.98;100403.06;10304689;28;20057;-66
2022/03/05 00:24:34;;;;;;;57.10;25.60;;;;;;;-1.06;57.32;100404.03;10304205;28;20064;-67
2022/03/05 00:29:37;;;;;;;55.08;23.58;;;;;;;-1.09;57.65;100404.91;10303113;28;20061;-66
2022/03/05 00:34:38;;;;;;;56.63;24.38;;;;;;;-1.05;57.45;100410.88;10303138;28;20136;-66
2022/03/05 00:39:41;;;;;;;52.72;23.08;;;;;;;-1.08;57.74;100409.16;10303609;28;20483;-67
2022/03/05 00:44:43;;;;;;;54.47;24.13;;;;;;;-1.08;57.84;100408.34;10303386;28;20213;-67
2022/03/05 00:49:49;;;;;;;54.78;24.88;;;;;;;-1.09;57.68;100401.47;10303288;28;20042;-66
2022/03/05 00:54:51;;;;;;;55.72;25.55;;;;;;;-1.11;57.63;100398.94;10303656;28;20574;-67
2022/03/05 00:59:52;;;;;;;59.35;25.38;;;;;;;-1.13;57.72;100400.66;10302169;28;20161;-66
2022/03/05 01:04:54;;;;;;;54.17;24.65;;;;;;;-1.20;57.86;100404.94;10303373;28;20144;-67
2022/03/05 01:09:56;;;;;;;58.85;26.38;;;;;;;-1.24;57.91;100407.53;10301896;28;20046;-66
2022/03/05 01:14:58;;;;;;;56.83;23.85;;;;;;;-1.28;58.09;100406.69;10303401;28;20132;-67
2022/03/05 01:19:59;;;;;;;61.30;25.38;;;;;;;-1.29;58.22;100399.03;10303196;28;20121;-66
2022/03/05 01:25:01;;;;;;;60.22;24.63;;;;;;;-1.33;58.21;100403.28;10303147;28;20072;-67
2022/03/05 01:30:04;;;;;;;60.78;25.52;;;;;;;-1.31;58.16;100396.44;10302665;28;20141;-66
2022/03/05 01:35:07;;;;;;;60.50;25.25;;;;;;;-1.36;58.09;100389.63;10302209;28;20145;-66
2022/03/05 01:40:09;;;;;;;59.22;25.52;;;;;;;-1.42;58.26;100380.25;10307373;28;20122;-66
2022/03/05 01:45:11;;;;;;;62.05;25.40;;;;;;;-1.46;58.26;100383.69;10309867;28;20364;-67
2022/03/05 01:50:13;;;;;;;63.45;26.27;;;;;;;-1.49;58.42;100377.72;10309652;28;20064;-65
2022/03/05 01:55:15;;;;;;;58.50;24.75;;;;;;;-1.58;58.59;100380.31;10309805;28;20100;-66
2022/03/05 02:00:17;;;;;;;63.65;25.27;;;;;;;-1.62;58.81;100386.31;10309587;28;20136;-65
2022/03/05 02:05:19;;;;;;;65.10;25.33;;;;;;;-1.71;58.73;100382.06;10308526;28;20065;-66
2022/03/05 02:10:21;;;;;;;61.97;24.83;;;;;;;-1.71;58.80;100383.78;10309279;28;20398;-66
2022/03/05 02:15:23;;;;;;;61.35;25.88;;;;;;;-1.73;58.80;100385.50;10310034;28;20058;-67
2022/03/05 02:20:28;;;;;;;62.10;25.48;;;;;;;-1.75;59.02;100382.94;10307796;28;20090;-66
2022/03/05 02:25:30;;;;;;;63.22;25.88;;;;;;;-1.76;59.05;100378.69;10307796;28;20050;-67
2022/03/05 02:30:32;;;;;;;61.75;26.35;;;;;;;-1.78;59.08;100376.97;10308310;28;20532;-67
2022/03/05 02:35:33;;;;;;;66.70;26.20;;;;;;;-1.83;59.02;100374.41;10305894;28;20519;-67
2022/03/05 02:40:35;;;;;;;63.83;25.60;;;;;;;-2.10;59.02;100369.34;10308020;28;20133;-66
2022/03/05 02:45:38;;;;;;;66.82;25.92;;;;;;;-2.51;59.59;100384.75;10307461;28;20706;-66
2022/03/05 02:50:41;;;;;;;59.95;24.25;;;;;;;-2.61;60.07;100374.53;10305029;28;20046;-66
2022/03/05 02:55:43;;;;;;;66.38;25.88;;;;;;;-2.58;60.16;100384.75;10306272;28;20517;-67
2022/03/05 03:00:45;;;;;;;58.35;23.20;;;;;;;-2.54;60.27;100387.31;10307891;28;20057;-66
2022/03/05 03:05:47;;;;;;;57.65;23.55;;;;;;;-2.45;60.06;100387.31;10314200;28;20054;-67
2022/03/05 03:10:49;;;;;;;64.10;24.42;;;;;;;-2.36;59.94;100386.47;10314101;28;20463;-66
2022/03/05 03:15:51;;;;;;;62.85;24.90;;;;;;;-2.40;59.83;100390.72;10314091;28;20053;-66
2022/03/05 03:20:52;;;;;;;59.90;25.13;;;;;;;-2.41;60.06;100380.50;10313494;28;20153;-66
2022/03/05 03:25:54;;;;;;;64.93;26.85;;;;;;;-2.39;60.26;100384.78;10313229;28;20477;-67
2022/03/05 03:30:56;;;;;;;66.20;25.80;;;;;;;-2.41;60.17;100390.75;10314002;28;20042;-66
2022/03/05 03:35:58;;;;;;;70.97;26.15;;;;;;;-2.46;60.22;100389.88;10313147;28;20757;-67
2022/03/05 03:40:59;;;;;;;55.33;23.02;;;;;;;-2.49;60.26;100390.72;10313093;28;20124;-66
2022/03/05 03:46:02;;;;;;;63.58;24.77;;;;;;;-2.49;60.20;100385.59;10312506;28;20140;-67
2022/03/05 03:51:03;;;;;;;62.25;24.23;;;;;;;-2.48;60.25;100384.75;10313007;28;20046;-66
2022/03/05 03:56:05;;;;;;;66.80;25.80;;;;;;;-2.47;60.26;100391.56;10311855;28;20541;-67
2022/03/05 04:01:07;;;;;;;69.10;26.25;;;;;;;-2.49;60.29;100382.22;10311896;28;20439;-66
2022/03/05 04:06:09;;;;;;;69.03;27.02;;;;;;;-2.52;60.36;100393.28;10305549;28;20073;-67
2022/03/05 04:11:13;;;;;;;66.22;25.38;;;;;;;-2.51;60.15;100391.59;10303623;28;20129;-67
2022/03/05 04:16:15;;;;;;;62.17;26.48;;;;;;;-2.54;60.29;100396.69;10305061;28;20060;-66
2022/03/05 04:21:17;;;;;;;73.53;27.55;;;;;;;-2.56;60.32;100395.84;10305213;28;20050;-66
2022/03/05 04:26:19;;;;;;;69.45;27.35;;;;;;;-2.67;60.26;100395.84;10304782;28;20141;-67
2022/03/05 04:31:21;;;;;;;66.05;25.98;;;;;;;-2.80;60.77;100389.00;10303599;28;21198;-66
2022/03/05 04:36:23;;;;;;;64.45;25.10;;;;;;;-2.76;60.72;100395.84;10304508;28;20068;-66
2022/03/05 04:41:24;;;;;;;68.18;25.92;;;;;;;-2.76;60.57;100394.97;10304754;28;20054;-66
2022/03/05 04:46:26;;;;;;;67.15;25.33;;;;;;;-2.78;60.73;100391.56;10302952;28;20133;-66
2022/03/05 04:51:28;;;;;;;75.80;26.20;;;;;;;-2.93;60.28;100402.63;10304281;28;20135;-66
2022/03/05 04:56:30;;;;;;;63.90;25.58;;;;;;;-3.01;60.58;100405.19;10304485;28;20406;-66
2022/03/05 05:01:32;;;;;;;65.38;25.42;;;;;;;-2.98;60.62;100414.56;10304295;28;20133;-65
2022/03/05 05:06:34;;;;;;;68.88;25.92;;;;;;;-3.01;60.58;100424.78;10304222;28;20062;-66
2022/03/05 05:11:36;;;;;;;68.47;25.90;;;;;;;-3.06;60.78;100422.22;10305718;28;20055;-66
2022/03/05 05:16:38;;;;;;;65.32;26.10;;;;;;;-3.04;60.70;100429.91;10311764;28;20546;-67
2022/03/05 05:21:40;;;;;;;63.15;23.88;;;;;;;-3.08;60.66;100431.59;10312026;28;20050;-65
2022/03/05 05:26:42;;;;;;;64.63;26.10;;;;;;;-3.12;60.71;100432.41;10311450;28;20081;-66
2022/03/05 05:31:44;;;;;;;76.28;26.80;;;;;;;-3.14;60.77;100438.41;10310820;28;20150;-67
2022/03/05 05:36:45;;;;;;;68.90;24.80;;;;;;;-3.16;61.00;100435.00;10310902;28;20042;-67
2022/03/05 05:41:47;;;;;;;73.80;24.73;;;;;;;-3.20;61.11;100440.94;10309957;28;20054;-66
2022/03/05 05:46:49;;;;;;;64.30;24.50;;;;;;;-3.24;60.58;100441.78;10310463;28;20054;-67
2022/03/05 05:51:54;;;;;;;60.55;24.15;;;;;;;-3.53;60.77;100453.56;10308902;28;20051;-67
2022/03/05 05:56:56;;;;;;;67.95;25.10;;;;;;;-3.64;61.23;100456.06;10310862;28;20060;-65
2022/03/05 06:01:58;;;;;;;69.68;24.42;;;;;;;-3.64;61.27;100456.06;10310291;28;20046;-66
2022/03/05 06:07:00;;;;;;;67.85;24.10;;;;;;;-3.57;61.22;100462.06;10309209;28;20140;-66
2022/03/05 06:12:02;;;;;;;71.05;24.35;;;;;;;-3.54;61.45;100462.94;10308518;28;20057;-67
2022/03/05 06:17:04;;;;;;;68.88;24.27;;;;;;;-3.55;61.63;100468.91;10309620;28;20060;-66
2022/03/05 06:22:06;;;;;;;69.85;28.55;;;;;;;-3.46;61.56;100466.38;10307630;28;20052;-66
2022/03/05 06:27:08;;;;;;;75.55;30.20;;;;;;;-3.32;61.32;100467.31;10309082;28;20161;-65
2022/03/05 06:32:10;;;;;;;73.00;26.73;;;;;;;-3.30;61.06;100473.28;10307749;28;20354;-66
2022/03/05 06:37:12;;;;;;;70.75;27.58;;;;;;;-3.25;61.08;100478.41;10308265;28;20061;-66
2022/03/05 06:42:15;;;;;;;64.28;24.02;;;;;;;-3.11;60.97;100466.53;10307704;28;20521;-66
2022/03/05 06:47:17;;;;;;;60.38;24.92;;;;;;;-3.00;60.55;100472.56;10308522;28;20050;-66
2022/03/05 06:52:18;;;;;;;71.25;25.35;;;;;;;-3.04;60.58;100488.75;10306934;28;20056;-66
2022/03/05 06:57:20;;;;;;;62.88;23.83;;;;;;;-2.95;60.71;100491.34;10308353;28;20508;-66
2022/03/05 07:02:22;;;;;;;61.53;24.63;;;;;;;-2.75;60.49;100488.84;10308042;28;20161;-66
2022/03/05 07:07:24;;;;;;;62.67;24.30;;;;;;;-2.71;60.20;100500.81;10307051;28;20066;-66
2022/03/05 07:12:26;;;;;;;62.08;24.85;;;;;;;-2.63;60.40;100499.94;10307819;28;20054;-66
2022/03/05 07:17:33;;;;;;;67.22;24.50;;;;;;;-2.43;60.30;100498.31;10306141;28;20053;-67
2022/03/05 07:22:35;;;;;;;59.90;24.25;;;;;;;-2.29;60.09;100498.31;10305158;28;20125;-66
2022/03/05 07:27:38;;;;;;;65.03;24.13;;;;;;;-2.16;59.80;100500.03;10305063;28;20086;-67
2022/03/05 07:32:40;;;;;;;63.80;25.23;;;;;;;-2.11;59.86;100495.78;10306732;28;20057;-67
2022/03/05 07:37:41;;;;;;;65.75;26.35;;;;;;;-2.01;59.91;100500.91;10305709;28;20122;-66
2022/03/05 07:42:43;;;;;;;70.50;25.85;;;;;;;-1.90;60.16;100505.16;10306700;28;20549;-67
2022/03/05 07:47:45;;;;;;;62.72;25.38;;;;;;;-1.75;60.24;100507.69;10306110;28;20443;-67
2022/03/05 07:52:47;;;;;;;67.82;25.88;;;;;;;-1.37;59.80;100505.94;10304651;28;20129;-67
2022/03/05 07:57:48;;;;;;;68.28;25.60;;;;;;;-1.04;59.44;100497.28;10304459;28;20555;-66
2022/03/05 08:02:51;;;;;;;63.30;26.25;;;;;;;-0.55;58.63;100509.88;10306677;28;20058;-67
2022/03/05 08:07:56;;;;;;;62.03;26.55;;;;;;;-0.17;57.92;100503.63;10303565;28;20141;-67
2022/03/05 08:12:58;;;;;;;64.88;27.58;;;;;;;-0.01;57.31;100508.66;10305547;28;20062;-67
2022/03/05 08:18:01;;;;;;;64.25;27.65;;;;;;;0.28;56.82;100514.38;10305793;28;20050;-67
2022/03/05 08:23:03;;;;;;;57.20;26.02;;;;;;;0.60;56.38;100514.09;10305001;28;20055;-66
2022/03/05 08:28:05;;;;;;;56.40;26.25;;;;;;;1.01;55.74;100513.66;10304083;28;20145;-67
2022/03/05 08:33:07;;;;;;;54.17;26.38;;;;;;;1.14;55.25;100503.16;10304428;28;20314;-67
2022/03/05 08:38:09;;;;;;;59.42;26.25;;;;;;;1.35;54.88;100508.06;10304276;28;20046;-67
2022/03/05 08:43:10;;;;;;;57.70;26.45;;;;;;;1.51;54.52;100505.25;10303372;28;20058;-67
2022/03/05 08:48:12;;;;;;;55.60;25.92;;;;;;;1.85;53.77;100496.13;10312559;28;20526;-66
2022/03/05 08:53:14;;;;;;;54.30;25.88;;;;;;;1.81;53.23;100490.19;10317893;28;20708;-67
2022/03/05 08:58:16;;;;;;;51.50;25.50;;;;;;;1.68;53.68;100491.25;10317031;28;20129;-68
2022/03/05 09:03:18;;;;;;;59.28;27.88;;;;;;;1.86;53.32;100490.13;10317655;28;20054;-67
2022/03/05 09:08:20;;;;;;;55.85;26.10;;;;;;;2.06;53.43;100500.97;10315571;28;20054;-68
2022/03/05 09:13:22;;;;;;;58.08;26.92;;;;;;;2.38;52.48;100490.94;10316992;28;20116;-63
2022/03/05 09:18:24;;;;;;;51.53;25.65;;;;;;;2.53;52.38;100490.69;10318061;28;20050;-62
2022/03/05 09:23:25;;;;;;;47.28;25.67;;;;;;;2.72;51.79;100497.22;10317007;28;20124;-63
2022/03/05 09:28:27;;;;;;;51.50;25.85;;;;;;;3.13;51.70;100492.97;10316188;28;20054;-62
2022/03/05 09:33:29;;;;;;;47.25;24.38;;;;;;;3.28;51.09;100492.63;10317487;28;20164;-62
2022/03/05 09:38:31;;;;;;;48.97;24.48;;;;;;;3.30;50.68;100496.91;10316376;28;20517;-63
2022/03/05 09:43:34;;;;;;;45.25;23.63;;;;;;;3.23;50.53;100497.06;10315906;28;20202;-62
2022/03/05 09:48:40;;;;;;;44.58;24.48;;;;;;;3.53;50.61;100489.50;10316590;28;20058;-63
2022/03/05 09:53:43;;;;;;;43.05;24.88;;;;;;;3.82;49.46;100488.84;10316690;28;20125;-63
2022/03/05 09:58:50;;;;;;;43.83;24.10;;;;;;;3.71;49.30;100483.03;10311457;28;20778;-63
2022/03/05 10:03:53;;;;;;;46.85;24.20;;;;;;;3.85;48.89;100481.88;10310297;28;20138;-63
2022/03/05 10:08:56;;;;;;;44.60;23.42;;;;;;;3.96;48.02;100479.03;10311254;28;20163;-62
2022/03/05 10:13:59;;;;;;;43.10;22.88;;;;;;;4.02;48.97;100473.72;10308650;28;20042;-63
2022/03/05 10:19:22;;;;;;;44.50;23.75;;;;;;;3.84;47.72;100469.81;10309662;28;20528;-63
2022/03/05 10:24:35;;;;;;;41.35;23.63;;;;;;;3.97;47.47;100467.78;10309767;28;20133;-63
2022/03/05 10:29:39;;;;;;;42.70;23.52;;;;;;;4.22;48.46;100470.63;10308933;28;20576;-63
2022/03/05 10:34:42;;;;;;;40.95;23.30;;;;;;;4.40;48.25;100470.13;10308808;28;20057;-63
2022/03/05 10:39:46;;;;;;;38.05;21.77;;;;;;;4.38;47.93;100457.25;10307862;28;20430;-63
2022/03/05 10:45:12;;;;;;;39.42;22.50;;;;;;;4.43;46.60;100447.59;10307726;28;20180;-63
2022/03/05 10:50:20;;;;;;;39.45;22.08;;;;;;;4.66;46.72;100442.66;10308414;28;20054;-63
2022/03/05 10:55:25;;;;;;;36.05;21.95;;;;;;;4.69;46.82;100437.41;10303649;28;20050;-63
2022/03/05 11:00:28;;;;;;;34.63;20.42;;;;;;;4.87;46.69;100432.56;10306747;28;20582;-63
2022/03/05 11:05:31;;;;;;;35.33;20.25;;;;;;;4.87;46.96;100429.97;10308524;28;20052;-63
2022/03/05 11:10:33;;;;;;;36.03;20.48;;;;;;;4.65;47.05;100425.44;10307739;28;20629;-63
2022/03/05 11:15:35;;;;;;;31.42;19.00;;;;;;;4.72;46.60;100421.75;10307911;28;20467;-63
2022/03/05 11:20:38;;;;;;;32.85;19.63;;;;;;;4.83;46.87;100410.25;10306737;28;20124;-63
2022/03/05 11:25:42;;;;;;;33.28;19.23;;;;;;;4.96;45.90;100406.41;10307109;28;20589;-63
2022/03/05 11:30:45;;;;;;;31.10;19.50;;;;;;;5.11;46.79;100404.19;10305574;28;20610;-63
2022/03/05 11:35:48;;;;;;;31.17;18.35;;;;;;;5.22;45.39;100402.16;10304548;28;20164;-62
2022/03/05 11:40:50;;;;;;;31.40;18.27;;;;;;;5.22;45.88;100393.50;10304529;28;20140;-62
2022/03/05 11:45:54;;;;;;;29.27;17.70;;;;;;;5.49;45.24;100390.06;10306241;28;20070;-63
2022/03/05 11:50:59;;;;;;;28.52;16.50;;;;;;;5.55;44.94;100379.50;10306510;28;20053;-62
2022/03/05 11:56:24;;;;;;;25.92;16.05;;;;;;;5.80;42.21;100371.75;10304976;28;20082;-62
2022/03/05 12:01:35;;;;;;;24.05;16.23;;;;;;;5.96;42.22;100365.97;10305591;28;20101;-63
2022/03/05 12:06:44;;;;;;;21.48;12.93;;;;;;;6.04;39.93;100357.94;10302705;28;20054;-63
2022/03/05 12:11:56;;;;;;;21.45;13.02;;;;;;;6.16;40.79;100350.59;10300256;28;20136;-62
2022/03/05 12:17:08;;;;;;;20.70;12.65;;;;;;;6.38;39.73;100347.25;10301543;28;20050;-63
2022/03/05 12:22:14;;;;;;;17.92;11.30;;;;;;;6.66;39.98;100342.72;10302629;28;20133;-63
2022/03/05 12:27:17;;;;;;;18.35;11.07;;;;;;;6.79;39.38;100339.63;10301372;28;20060;-63
2022/03/05 12:32:20;;;;;;;22.65;12.60;;;;;;;6.87;38.47;100342.78;10303153;28;20172;-63
2022/03/05 12:37:29;;;;;;;19.63;11.98;;;;;;;6.99;37.21;100338.84;10303049;28;20117;-63
2022/03/05 12:42:46;;;;;;;19.42;11.95;;;;;;;7.02;37.52;100339.56;10304850;28;20047;-63
2022/03/05 12:47:48;;;;;;;15.77;10.30;;;;;;;7.35;37.04;100329.59;10305165;28;20137;-63
2022/03/05 12:53:06;;;;;;;18.13;11.60;;;;;;;7.55;34.95;100326.19;10304930;28;20136;-63
2022/03/05 12:58:12;;;;;;;15.13;10.55;;;;;;;7.46;35.74;100324.81;10303185;28;20042;-63
2022/03/05 13:03:15;;;;;;;15.30;10.07;;;;;;;7.58;35.32;100320.84;10304363;28;20057;-63
2022/03/05 13:08:20;;;;;;;14.27;9.27;;;;;;;7.67;34.00;100312.69;10304601;28;20156;-63
2022/03/05 13:13:28;;;;;;;12.40;8.23;;;;;;;7.44;33.85;100312.78;10304120;28;20077;-63
2022/03/05 13:18:29;;;;;;;13.18;8.32;;;;;;;7.62;33.77;100305.06;10304583;28;20050;-64
2022/03/05 13:23:35;;;;;;;11.88;8.50;;;;;;;7.67;32.65;100304.88;10303714;28;20125;-63
2022/03/05 13:28:38;;;;;;;12.13;8.27;;;;;;;7.70;32.66;100299.53;10304540;28;20415;-63
2022/03/05 13:33:48;;;;;;;11.85;7.78;;;;;;;7.92;31.94;100301.16;10305773;28;20650;-63
2022/03/05 13:38:57;;;;;;;11.93;7.67;;;;;;;7.91;32.43;100299.47;10310550;28;20133;-63
2022/03/05 13:44:01;;;;;;;10.70;7.40;;;;;;;7.98;32.08;100297.41;10311821;28;20520;-64
2022/03/05 13:49:05;;;;;;;12.07;7.95;;;;;;;8.11;32.30;100293.41;10310248;28;20104;-63
2022/03/05 13:54:09;;;;;;;12.32;8.10;;;;;;;8.13;31.55;100291.59;10310250;28;20061;-63
2022/03/05 13:59:12;;;;;;;11.05;7.32;;;;;;;7.95;31.15;100290.63;10311592;28;20046;-64
2022/03/05 14:04:18;;;;;;;11.35;7.18;;;;;;;8.07;30.05;100289.22;10306900;28;20047;-63
2022/03/05 14:09:23;;;;;;;9.93;6.40;;;;;;;7.85;30.66;100294.50;10306538;28;20143;-63
2022/03/05 14:14:34;;;;;;;10.25;6.10;;;;;;;7.61;29.75;100289.50;10305486;28;20086;-62
2022/03/05 14:19:35;;;;;;;;;;;;;;;7.57;31.18;100290.56;10306858;28;20056;-62
2022/03/05 14:24:38;;;;;;;;;;;;;;;7.26;29.17;100290.97;10305088;28;20392;-62
2022/03/05 14:29:42;;;;;;;9.88;6.95;;;;;;;7.66;31.49;100283.19;10333837;28;20386;-63
2022/03/05 14:34:44;;;;;;;10.38;6.43;;;;;;;7.78;31.39;100284.41;10304279;28;20526;-63
2022/03/05 14:39:47;;;;;;;8.88;6.20;;;;;;;7.71;29.90;100281.22;10302129;28;20893;-63
2022/03/05 14:44:52;;;;;;;10.00;6.75;;;;;;;7.73;30.67;100283.78;10301611;28;20141;-63
2022/03/05 14:49:53;;;;;;;11.18;7.13;;;;;;;7.60;31.47;100285.19;10306180;28;20054;-63
2022/03/05 14:54:55;;;;;;;10.55;6.63;;;;;;;7.64;30.59;100274.59;10307118;28;20054;-62
2022/03/05 15:00:06;;;;;;;14.52;7.22;;;;;;;7.54;31.68;100275.91;10304585;28;20050;-63
2022/03/05 15:05:11;;;;;;;12.20;7.10;;;;;;;7.80;30.79;100269.56;10304405;28;20056;-63
2022/03/05 15:10:14;;;;;;;12.48;7.82;;;;;;;7.68;31.18;100270.97;10304835;28;20081;-63
2022/03/05 15:15:15;;;;;;;11.65;7.72;;;;;;;7.61;31.29;100277.31;10306282;28;20052;-63
2022/03/05 15:20:17;;;;;;;10.93;7.25;;;;;;;7.65;30.99;100276.28;10303277;28;20425;-63
2022/03/05 15:25:19;;;;;;;13.52;8.48;;;;;;;7.64;31.21;100276.34;10304754;28;20125;-63
2022/03/05 15:30:21;;;;;;;13.70;8.15;;;;;;;7.50;31.66;100276.09;10301296;28;20065;-63
2022/03/05 15:35:23;;;;;;;12.48;8.13;;;;;;;7.50;31.21;100271.72;10302858;28;20058;-61
2022/03/05 15:40:24;;;;;;;14.27;8.30;;;;;;;7.48;31.65;100281.34;10300944;28;20041;-62
2022/03/05 15:45:26;;;;;;;13.15;8.23;;;;;;;7.45;32.07;100276.28;10304482;28;20057;-62
2022/03/05 15:50:28;;;;;;;12.65;8.20;;;;;;;7.37;31.52;100280.94;10302114;28;20080;-61
2022/03/05 15:55:30;;;;;;;12.70;8.27;;;;;;;7.31;32.31;100276.00;10301945;28;20162;-62
2022/03/05 16:00:32;;;;;;;11.77;7.75;;;;;;;7.22;32.46;100283.34;10303339;28;20134;-62
2022/03/05 16:05:35;;;;;;;12.40;8.20;;;;;;;7.01;32.73;100278.09;10302759;28;20049;-62
2022/03/05 16:10:37;;;;;;;12.07;8.40;;;;;;;6.84;32.88;100274.44;10297038;28;20314;-62
2022/03/05 16:15:39;;;;;;;12.18;8.65;;;;;;;6.70;33.88;100274.13;10299430;28;20057;-64
2022/03/05 16:20:42;;;;;;;12.98;8.90;;;;;;;6.53;33.49;100281.72;10301935;28;20043;-62
2022/03/05 16:25:44;;;;;;;12.70;8.55;;;;;;;6.49;34.64;100280.16;10296451;28;20046;-62
2022/03/05 16:30:46;;;;;;;13.38;8.98;;;;;;;6.26;33.78;100279.25;10300981;28;20514;-62
2022/03/05 16:35:47;;;;;;;12.45;8.48;;;;;;;6.00;34.72;100284.50;10302704;28;20621;-61
2022/03/05 16:40:49;;;;;;;12.35;8.27;;;;;;;5.78;35.35;100283.56;10300199;28;20056;-62
2022/03/05 16:45:51;;;;;;;13.15;8.30;;;;;;;5.57;35.41;100287.72;10302202;28;20050;-62
2022/03/05 16:50:53;;;;;;;16.08;9.80;;;;;;;5.36;35.99;100290.19;10300643;28;20058;-62
2022/03/05 16:55:59;;;;;;;14.63;8.77;;;;;;;5.17;35.91;100276.97;10301373;28;20492;-62
2022/03/05 17:01:03;;;;;;;15.98;8.48;;;;;;;5.07;35.64;100283.34;10299613;28;20061;-62
2022/03/05 17:06:06;;;;;;;15.68;8.85;;;;;;;4.93;36.15;100297.63;10300749;28;20054;-62
2022/03/05 17:11:08;;;;;;;14.60;9.35;;;;;;;4.70;36.92;100299.19;10307147;28;20050;-61
2022/03/05 17:16:10;;;;;;;13.98;9.00;;;;;;;4.49;37.55;100302.44;10302429;28;20064;-61
2022/03/05 17:21:12;;;;;;;13.75;8.90;;;;;;;4.35;37.53;100306.31;10300921;28;20046;-61
2022/03/05 17:26:14;;;;;;;14.45;9.10;;;;;;;4.27;37.56;100313.44;10305523;28;20045;-62
2022/03/05 17:31:16;;;;;;;14.57;9.70;;;;;;;4.13;37.84;100320.75;10300123;28;20054;-62
2022/03/05 17:36:20;;;;;;;17.20;10.45;;;;;;;3.91;38.07;100322.19;10304831;28;20181;-61
2022/03/05 17:41:22;;;;;;;17.98;10.82;;;;;;;3.72;39.59;100332.97;10305033;28;20054;-62
2022/03/05 17:46:25;;;;;;;15.48;9.27;;;;;;;3.56;39.96;100343.75;10304953;28;20042;-62
2022/03/05 17:51:27;;;;;;;15.65;9.55;;;;;;;3.50;40.30;100338.72;10305517;28;20061;-68
2022/03/05 17:56:31;;;;;;;17.92;10.25;;;;;;;3.46;39.85;100331.94;10300434;28;20043;-68
2022/03/05 18:01:33;;;;;;;18.88;11.02;;;;;;;3.34;39.82;100343.41;10300945;28;20689;-68
2022/03/05 18:06:36;;;;;;;18.35;10.55;;;;;;;3.14;40.41;100345.63;10299958;28;20533;-69
2022/03/05 18:11:37;;;;;;;14.55;10.13;;;;;;;2.93;41.04;100341.78;10304793;28;20106;-69
2022/03/05 18:16:39;;;;;;;16.38;9.52;;;;;;;2.96;40.62;100346.03;10308072;28;20156;-69
2022/03/05 18:21:42;;;;;;;15.02;9.93;;;;;;;2.89;40.47;100344.47;10308456;28;20350;-69
2022/03/05 18:26:46;;;;;;;17.88;10.70;;;;;;;2.75;41.05;100344.78;10308984;28;20109;-69
2022/03/05 18:31:48;;;;;;;15.82;9.85;;;;;;;2.51;41.78;100350.47;10306955;28;21087;-69
2022/03/05 18:36:50;;;;;;;16.50;10.13;;;;;;;2.43;41.78;100364.41;10306900;28;20050;-68
2022/03/05 18:41:53;;;;;;;17.23;10.38;;;;;;;2.35;42.25;100361.97;10305977;28;20328;-67
2022/03/05 18:46:55;;;;;;;15.85;9.60;;;;;;;2.33;42.96;100371.47;10306851;28;20132;-68
2022/03/05 18:51:57;;;;;;;13.48;9.60;;;;;;;2.33;43.02;100378.38;10306495;28;20050;-68
2022/03/05 18:56:58;;;;;;;15.25;10.85;;;;;;;2.24;43.61;100387.13;10306509;28;20057;-68
2022/03/05 19:02:02;;;;;;;21.15;11.80;;;;;;;2.22;43.48;100387.16;10306332;28;20565;-68
2022/03/05 19:07:04;;;;;;;19.75;11.50;;;;;;;2.13;44.11;100383.91;10307452;28;20058;-68
2022/03/05 19:12:06;;;;;;;19.17;11.80;;;;;;;2.03;44.42;100387.53;10305657;28;20053;-67
2022/03/05 19:17:08;;;;;;;20.10;13.18;;;;;;;1.97;44.51;100390.22;10307014;28;20076;-68
2022/03/05 19:22:12;;;;;;;20.40;12.63;;;;;;;1.84;44.77;100386.16;10306033;28;20555;-68
2022/03/05 19:27:14;;;;;;;19.27;12.43;;;;;;;1.71;44.64;100388.06;10306046;28;20092;-68
2022/03/05 19:32:16;;;;;;;23.85;14.68;;;;;;;1.73;44.89;100393.19;10302266;28;20058;-69
2022/03/05 19:37:18;;;;;;;19.88;13.80;;;;;;;1.59;45.20;100403.75;10298901;28;20145;-69
2022/03/05 19:42:20;;;;;;;18.40;12.70;;;;;;;1.44;45.56;100410.88;10301436;28;20581;-68
2022/03/05 19:47:21;;;;;;;21.23;13.32;;;;;;;1.37;46.11;100412.69;10306487;28;20138;-69
2022/03/05 19:52:23;;;;;;;21.00;13.40;;;;;;;1.20;46.41;100409.50;10304789;28;20077;-69
2022/03/05 19:57:25;;;;;;;23.73;14.38;;;;;;;1.10;46.86;100403.63;10305030;28;20045;-69
2022/03/05 20:02:27;;;;;;;24.40;16.05;;;;;;;0.95;46.98;100403.81;10304590;28;20054;-69
2022/03/05 20:07:29;;;;;;;18.02;11.60;;;;;;;0.66;47.98;100405.94;10305420;28;20514;-69
2022/03/05 20:12:30;;;;;;;19.45;13.00;;;;;;;0.39;48.75;100406.25;10305511;28;20360;-69
2022/03/05 20:17:32;;;;;;;19.13;13.40;;;;;;;0.35;48.90;100420.00;10301283;28;20735;-69
2022/03/05 20:22:34;;;;;;;18.42;12.32;;;;;;;0.31;48.88;100426.91;10299667;28;20054;-69
2022/03/05 20:27:37;;;;;;;18.00;12.27;;;;;;;0.36;49.21;100435.41;10302754;28;20145;-69
2022/03/05 20:32:40;;;;;;;22.75;14.65;;;;;;;0.42;49.09;100447.38;10300925;28;20440;-69
2022/03/05 20:37:44;;;;;;;22.88;15.43;;;;;;;0.29;49.34;100445.81;10303595;28;20054;-69
2022/03/05 20:42:48;;;;;;;20.92;13.75;;;;;;;0.17;49.52;100445.91;10302440;28;20058;-69
2022/03/05 20:47:50;;;;;;;17.27;11.90;;;;;;;0.23;49.66;100446.72;10302334;28;20133;-69
2022/03/05 20:52:56;;;;;;;19.13;11.65;;;;;;;0.29;49.67;100448.38;10304181;28;20077;-69
2022/03/05 20:57:58;;;;;;;20.30;12.80;;;;;;;0.43;49.83;100459.38;10303348;28;20054;-70
2022/03/05 21:03:00;;;;;;;19.30;12.48;;;;;;;0.57;49.72;100462.66;10303367;28;20054;-69
2022/03/05 21:08:09;;;;;;;25.25;17.80;;;;;;;0.54;49.70;100475.56;10303724;28;20485;-69
2022/03/05 21:13:11;;;;;;;22.77;13.65;;;;;;;0.23;50.32;100467.28;10303117;28;20087;-69
2022/03/05 21:18:13;;;;;;;24.05;13.30;;;;;;;0.26;50.62;100471.56;10302858;28;20065;-69
2022/03/05 21:23:15;;;;;;;23.85;14.15;;;;;;;0.37;50.40;100473.16;10303248;28;20863;-69
2022/03/05 21:28:17;;;;;;;21.35;14.57;;;;;;;0.58;50.43;100471.22;10303051;28;20042;-69
2022/03/05 21:33:21;;;;;;;22.13;14.35;;;;;;;0.66;50.23;100482.28;10302178;28;20051;-69
2022/03/05 21:38:22;;;;;;;29.23;16.05;;;;;;;0.68;50.13;100465.97;10303136;28;20130;-69
2022/03/05 21:43:24;;;;;;;25.88;15.65;;;;;;;0.74;50.13;100471.03;10302749;28;20298;-69
2022/03/05 21:48:26;;;;;;;23.58;15.35;;;;;;;0.80;50.17;100468.41;10302585;28;20342;-69
2022/03/05 21:53:28;;;;;;;27.10;17.27;;;;;;;0.63;49.90;100485.75;10301793;28;20046;-69
2022/03/05 21:58:29;;;;;;;22.60;14.68;;;;;;;0.50;50.74;100485.00;10309346;28;20058;-69
2022/03/05 22:03:32;;;;;;;24.02;15.75;;;;;;;0.48;50.80;100493.63;10309145;28;20065;-69
2022/03/05 22:08:34;;;;;;;24.77;16.75;;;;;;;0.55;50.53;100487.53;10309112;28;20450;-70
2022/03/05 22:13:36;;;;;;;24.45;16.17;;;;;;;0.45;50.88;100483.38;10307002;28;20042;-69
2022/03/05 22:18:38;;;;;;;25.10;16.15;;;;;;;0.50;50.93;100484.19;10307923;28;20073;-69
2022/03/05 22:23:41;;;;;;;25.83;16.98;;;;;;;0.46;50.78;100488.47;10308659;28;20074;-68
2022/03/05 22:28:43;;;;;;;22.25;14.38;;;;;;;0.40;51.26;100485.16;10307949;28;20248;-68
2022/03/05 22:33:46;;;;;;;20.02;13.00;;;;;;;0.33;51.05;100491.19;10307131;28;20517;-70
2022/03/05 22:38:48;;;;;;;21.25;13.35;;;;;;;0.37;51.68;100480.00;10308917;28;20069;-69
2022/03/05 22:43:50;;;;;;;22.38;14.57;;;;;;;0.20;51.05;100482.75;10307907;28;20833;-69
2022/03/05 22:48:51;;;;;;;19.98;13.45;;;;;;;0.06;51.75;100478.59;10305846;28;20058;-69
2022/03/05 22:53:53;;;;;;;19.75;12.95;;;;;;;0.12;51.52;100478.53;10307802;28;20248;-68
2022/03/05 22:58:55;;;;;;;21.67;14.48;;;;;;;0.01;51.79;100475.22;10307010;28;20414;-70